createdAt,value
2022-09-12T00:04:45.715Z,56.28
2022-09-12T00:09:48.743Z,61.21
2022-09-12T00:14:51.568Z,68.93
2022-09-12T00:19:55.260Z,62.64
2022-09-12T00:24:58.076Z,58.25
2022-09-12T00:30:00.953Z,65.68
2022-09-12T00:35:04.289Z,61.10
2022-09-12T00:40:07.478Z,57.00
2022-09-12T00:45:23.525Z,65.03
2022-09-12T00:50:26.575Z,60.76
2022-09-12T00:55:43.957Z,58.96
2022-09-12T01:00:47.657Z,66.81
2022-09-12T01:06:18.331Z,59.87
2022-09-12T01:11:22.583Z,59.47
2022-09-12T01:16:25.794Z,63.62
2022-09-12T01:21:31.199Z,57.61
2022-09-12T01:27:08.024Z,64.22
2022-09-12T01:32:24.553Z,62.91
2022-09-12T01:37:49.065Z,56.91
2022-09-12T01:43:01.505Z,65.14
2022-09-12T01:48:20.465Z,60.41
2022-09-12T01:53:28.527Z,58.14
2022-09-12T01:58:42.123Z,65.73
2022-09-12T02:04:00.002Z,60.10
2022-09-12T02:09:12.891Z,58.37
2022-09-12T02:14:25.918Z,67.10
2022-09-12T02:19:34.241Z,59.39
2022-09-12T02:24:40.545Z,60.60
2022-09-12T02:29:45.096Z,65.14
2022-09-12T02:35:07.496Z,58.30
2022-09-12T02:40:10.527Z,63.33
2022-09-12T02:45:13.726Z,61.87
2022-09-12T02:50:17.358Z,58.20
2022-09-12T02:55:20.404Z,64.79
2022-09-12T03:00:25.002Z,57.61
2022-09-12T03:05:47.435Z,63.06
2022-09-12T03:11:02.161Z,61.88
2022-09-12T03:16:05.416Z,57.70
2022-09-12T03:21:30.057Z,64.80
2022-09-12T03:26:40.032Z,59.18
2022-09-12T03:31:55.356Z,60.93
2022-09-12T03:36:58.420Z,64.23
2022-09-12T03:42:01.221Z,57.28
2022-09-12T03:47:06.927Z,61.76
2022-09-12T03:52:12.275Z,65.54
2022-09-12T03:57:16.902Z,57.19
2022-09-12T04:02:20.154Z,62.95
2022-09-12T04:07:23.086Z,64.07
2022-09-12T04:12:26.095Z,57.13
2022-09-12T04:17:29.045Z,62.10
2022-09-12T04:22:32.747Z,65.76
2022-09-12T04:27:35.621Z,60.40
2022-09-12T04:32:38.414Z,56.47
2022-09-12T04:37:41.248Z,61.54
2022-09-12T04:42:44.001Z,66.55
2022-09-12T04:47:46.884Z,57.61
2022-09-12T04:52:53.974Z,59.65
2022-09-12T04:57:56.742Z,65.09
2022-09-12T05:02:59.496Z,58.23
2022-09-12T05:08:02.544Z,60.78
2022-09-12T05:13:05.335Z,67.32
2022-09-12T05:18:08.160Z,59.71
2022-09-12T05:23:10.948Z,62.22
2022-09-12T05:28:13.761Z,64.32
2022-09-12T05:33:16.616Z,57.39
2022-09-12T05:38:19.509Z,61.88
2022-09-12T05:43:22.414Z,65.61
2022-09-12T05:48:25.179Z,58.45
2022-09-12T05:53:29.299Z,62.18
2022-09-12T05:58:32.701Z,61.46
2022-09-12T06:03:54.761Z,57.51
2022-09-12T06:14:27.100Z,56.74
2022-09-12T06:19:29.962Z,63.69
2022-09-12T06:45:54.557Z,60.46
2022-09-12T06:51:02.175Z,56.28
2022-09-12T07:01:38.308Z,55.82
2022-09-12T07:06:44.176Z,59.51
2022-09-12T07:11:47.412Z,62.75
2022-09-12T07:16:50.245Z,55.16
2022-09-12T07:21:56.594Z,59.70
2022-09-12T07:27:01.472Z,63.08
2022-09-12T07:32:05.716Z,57.45
2022-09-12T07:37:09.371Z,56.36
2022-09-12T07:42:19.400Z,60.34
2022-09-12T07:47:33.747Z,57.17
2022-09-12T07:52:41.459Z,57.07
2022-09-12T07:57:44.368Z,59.88
2022-09-12T08:02:51.699Z,62.63
2022-09-12T08:07:57.657Z,54.11
2022-09-12T08:13:00.728Z,54.16
2022-09-12T08:18:03.408Z,58.76
2022-09-12T08:23:07.879Z,60.63
2022-09-12T08:28:10.703Z,62.41
2022-09-12T08:33:18.134Z,54.18
2022-09-12T08:38:21.000Z,56.96
2022-09-12T08:43:31.130Z,60.65
2022-09-12T08:48:42.393Z,62.44
2022-09-12T08:53:49.452Z,52.68
2022-09-12T08:58:56.739Z,55.96
2022-09-12T09:04:10.404Z,58.45
2022-09-12T09:09:19.528Z,61.12
2022-09-12T09:15:06.018Z,61.45
2022-09-12T09:20:28.997Z,56.67
2022-09-12T09:25:41.946Z,54.29
2022-09-12T09:30:47.041Z,58.01
2022-09-12T09:35:56.946Z,58.13
2022-09-12T09:41:19.944Z,59.10
2022-09-12T09:46:22.832Z,59.21
2022-09-12T09:51:33.062Z,59.25
2022-09-12T09:56:37.442Z,59.31
2022-09-12T10:01:57.608Z,57.11
2022-09-12T10:07:02.723Z,56.53
2022-09-12T10:12:27.296Z,56.58
2022-09-12T10:17:39.389Z,56.33
2022-09-12T10:22:47.791Z,56.56
2022-09-12T10:28:00.245Z,55.61
2022-09-12T10:33:11.806Z,56.26
2022-09-12T10:38:24.521Z,57.12
2022-09-12T10:43:29.841Z,56.87
2022-09-12T10:48:33.339Z,56.65
2022-09-12T10:53:47.522Z,56.37
2022-09-12T10:59:09.208Z,57.17
2022-09-12T11:04:30.380Z,57.40
2022-09-12T11:09:39.237Z,57.07
2022-09-12T11:15:03.255Z,57.59
2022-09-12T11:20:20.842Z,57.95
2022-09-12T11:26:01.802Z,58.14
2022-09-12T11:31:23.242Z,58.87
2022-09-12T11:36:47.658Z,57.38
2022-09-12T11:42:05.660Z,56.09
2022-09-12T11:47:12.546Z,54.75
2022-09-12T11:52:25.177Z,55.60
2022-09-12T11:57:53.993Z,56.49
2022-09-12T12:03:13.871Z,57.56
2022-09-12T12:08:16.923Z,57.87
2022-09-12T12:13:22.864Z,56.57
2022-09-12T12:18:28.319Z,55.31
2022-09-12T12:23:35.025Z,54.93
2022-09-12T12:28:50.467Z,55.97
2022-09-12T12:33:55.605Z,56.94
2022-09-12T12:38:59.918Z,57.88
2022-09-12T12:44:41.103Z,58.22
2022-09-12T12:49:52.062Z,56.96
2022-09-12T12:54:58.896Z,55.87
2022-09-12T13:00:20.108Z,55.50
2022-09-12T13:05:25.719Z,54.38
2022-09-12T13:10:29.982Z,54.94
2022-09-12T13:15:35.911Z,55.25
2022-09-12T13:20:51.055Z,56.04
2022-09-12T13:25:56.487Z,56.62
2022-09-12T13:31:24.748Z,56.12
2022-09-12T13:36:42.829Z,55.13
2022-09-12T13:42:10.778Z,54.20
2022-09-12T13:47:30.893Z,53.61
2022-09-12T13:52:38.094Z,53.61
2022-09-12T13:57:42.115Z,53.55
2022-09-12T14:02:45.557Z,53.45
2022-09-12T14:07:52.621Z,54.06
2022-09-12T14:12:57.356Z,55.12
2022-09-12T14:18:03.313Z,55.38
2022-09-12T14:23:27.562Z,56.25
2022-09-12T14:28:31.395Z,55.93
2022-09-12T14:33:55.499Z,56.11
2022-09-12T14:39:05.517Z,54.69
2022-09-12T14:44:16.596Z,54.10
2022-09-12T14:49:36.814Z,54.43
2022-09-12T14:54:40.396Z,55.82
2022-09-12T14:59:43.201Z,54.46
2022-09-12T15:05:09.175Z,52.03
2022-09-12T15:10:36.757Z,52.54
2022-09-12T15:15:41.768Z,52.79
2022-09-12T15:22:24.641Z,51.34
2022-09-12T15:27:27.517Z,49.92
2022-09-12T15:32:30.623Z,48.10
2022-09-12T15:37:33.443Z,47.81
2022-09-12T15:42:36.289Z,47.26
2022-09-12T15:47:39.132Z,44.52
2022-09-12T15:52:42.810Z,43.16
2022-09-12T15:57:45.971Z,42.00
2022-09-12T16:02:51.745Z,41.81
2022-09-12T16:07:55.806Z,41.60
2022-09-12T16:12:59.838Z,41.85
2022-09-12T16:18:02.635Z,41.39
2022-09-12T16:23:05.457Z,41.12
2022-09-12T16:28:08.445Z,42.10
2022-09-12T16:33:12.355Z,42.36
2022-09-12T16:38:15.227Z,43.21
2022-09-12T16:43:18.325Z,43.92
2022-09-12T16:48:21.057Z,45.08
2022-09-12T16:53:23.860Z,47.24
2022-09-12T16:58:27.268Z,49.57
2022-09-12T17:03:30.705Z,51.97
2022-09-12T17:08:36.312Z,54.48
2022-09-12T17:14:03.403Z,55.51
2022-09-12T17:19:05.758Z,59.85
2022-09-12T17:24:09.055Z,60.41
2022-09-12T17:29:14.031Z,62.06
2022-09-12T17:34:18.047Z,70.04
2022-09-12T17:39:20.912Z,57.79
2022-09-12T17:44:24.457Z,56.05
2022-09-12T17:49:27.610Z,59.68
2022-09-12T17:54:31.220Z,62.77
2022-09-12T17:59:34.006Z,66.68
2022-09-12T18:04:37.544Z,55.08
2022-09-12T18:09:41.175Z,58.42
2022-09-12T18:14:44.018Z,63.12
2022-09-12T18:19:52.876Z,65.85
2022-09-12T18:24:56.594Z,56.61
2022-09-12T18:30:20.220Z,58.04
2022-09-12T18:35:22.227Z,67.41
2022-09-12T18:40:25.999Z,59.64
2022-09-12T18:45:28.851Z,55.59
2022-09-12T18:50:32.818Z,59.54
2022-09-12T18:55:35.604Z,64.22
2022-09-12T19:00:41.034Z,63.22
2022-09-12T19:05:43.989Z,55.17
2022-09-12T19:10:55.105Z,59.42
2022-09-12T19:15:59.770Z,66.71
2022-09-12T19:21:04.794Z,56.03
2022-09-12T19:26:09.618Z,59.02
2022-09-12T19:31:16.079Z,65.86
2022-09-12T19:36:43.959Z,56.25
2022-09-12T19:41:45.254Z,58.85
2022-09-12T19:46:48.221Z,65.21
2022-09-12T19:51:51.136Z,63.58
2022-09-12T19:56:54.004Z,55.53
2022-09-12T20:01:57.012Z,59.82
2022-09-12T20:06:59.938Z,66.08
2022-09-12T20:12:02.715Z,55.99
2022-09-12T20:17:06.629Z,57.92
2022-09-12T20:22:09.994Z,61.71
2022-09-12T20:27:12.818Z,67.89
2022-09-12T20:32:16.139Z,56.44
2022-09-12T20:37:19.011Z,58.54
2022-09-12T20:42:21.814Z,65.38
2022-09-12T20:47:24.629Z,56.33
2022-09-12T20:52:27.411Z,59.02
2022-09-12T20:57:30.222Z,65.54
2022-09-12T21:02:33.120Z,56.40
2022-09-12T21:07:35.962Z,59.97
2022-09-12T21:12:38.835Z,66.72
2022-09-12T21:17:41.622Z,56.59
2022-09-12T21:22:44.531Z,57.94
2022-09-12T21:27:47.593Z,65.66
2022-09-12T21:32:50.412Z,58.77
2022-09-12T21:37:53.376Z,57.10
2022-09-12T21:42:56.656Z,64.74
2022-09-12T21:47:59.414Z,60.16
2022-09-12T21:53:02.311Z,56.17
2022-09-12T21:58:05.130Z,61.13
2022-09-12T22:03:10.460Z,67.58
2022-09-12T22:08:13.312Z,56.73
2022-09-12T22:13:16.120Z,57.66
2022-09-12T22:18:19.267Z,65.73
2022-09-12T22:23:40.756Z,60.38
2022-09-12T22:28:44.416Z,56.17
2022-09-12T22:33:47.253Z,60.92
2022-09-12T22:38:50.040Z,68.27
2022-09-12T22:43:52.949Z,56.64
2022-09-12T22:48:55.950Z,56.52
2022-09-12T22:53:59.253Z,60.01
2022-09-12T22:59:02.127Z,67.70
2022-09-12T23:04:05.445Z,57.61
2022-09-12T23:09:08.131Z,57.97
2022-09-12T23:14:10.929Z,63.74
2022-09-12T23:19:13.906Z,63.65
2022-09-12T23:24:16.909Z,55.05
2022-09-12T23:29:19.711Z,60.42
2022-09-12T23:34:22.613Z,68.92
2022-09-12T23:39:25.473Z,58.31
2022-09-12T23:44:28.235Z,56.25
2022-09-12T23:49:31.068Z,60.60
2022-09-12T23:54:33.804Z,66.34
2022-09-12T23:59:37.082Z,55.62
